sensor_id;sensor_type;location;lat;lon;timestamp;P1;durP1;ratioP1;P2;durP2;ratioP2
34896;SDS011;43407;51.828;-2.298;2023-12-29T00:02:01;20.98;;;4.30;;
34896;SDS011;43407;51.828;-2.298;2023-12-29T00:04:27;19.13;;;4.55;;
34896;SDS011;43407;51.828;-2.298;2023-12-29T00:06:52;23.50;;;4.50;;
34896;SDS011;43407;51.828;-2.298;2023-12-29T00:09:17;23.83;;;4.30;;
34896;SDS011;43407;51.828;-2.298;2023-12-29T00:11:46;22.55;;;4.40;;
34896;SDS011;43407;51.828;-2.298;2023-12-29T00:14:11;17.23;;;3.88;;
34896;SDS011;43407;51.828;-2.298;2023-12-29T00:16:37;16.52;;;4.13;;
34896;SDS011;43407;51.828;-2.298;2023-12-29T00:19:03;18.58;;;5.40;;
34896;SDS011;43407;51.828;-2.298;2023-12-29T00:21:31;21.27;;;4.07;;
34896;SDS011;43407;51.828;-2.298;2023-12-29T00:23:56;21.38;;;3.60;;
34896;SDS011;43407;51.828;-2.298;2023-12-29T00:26:22;20.98;;;3.58;;
34896;SDS011;43407;51.828;-2.298;2023-12-29T00:28:47;16.65;;;3.85;;
34896;SDS011;43407;51.828;-2.298;2023-12-29T00:31:15;19.35;;;4.00;;
34896;SDS011;43407;51.828;-2.298;2023-12-29T00:33:41;19.42;;;4.07;;
34896;SDS011;43407;51.828;-2.298;2023-12-29T00:36:07;24.20;;;4.85;;
34896;SDS011;43407;51.828;-2.298;2023-12-29T00:38:32;16.60;;;3.78;;
34896;SDS011;43407;51.828;-2.298;2023-12-29T00:40:57;27.00;;;3.72;;
34896;SDS011;43407;51.828;-2.298;2023-12-29T00:43:23;15.68;;;3.92;;
34896;SDS011;43407;51.828;-2.298;2023-12-29T00:45:49;19.45;;;3.92;;
34896;SDS011;43407;51.828;-2.298;2023-12-29T00:48:14;14.70;;;3.17;;
34896;SDS011;43407;51.828;-2.298;2023-12-29T00:50:39;11.15;;;2.92;;
34896;SDS011;43407;51.828;-2.298;2023-12-29T00:53:04;17.98;;;3.20;;
34896;SDS011;43407;51.828;-2.298;2023-12-29T00:55:30;15.60;;;3.00;;
34896;SDS011;43407;51.828;-2.298;2023-12-29T00:57:55;13.13;;;2.88;;
34896;SDS011;43407;51.828;-2.298;2023-12-29T01:00:20;17.65;;;3.20;;
34896;SDS011;43407;51.828;-2.298;2023-12-29T01:02:46;13.38;;;2.90;;
34896;SDS011;43407;51.828;-2.298;2023-12-29T01:05:14;11.85;;;2.70;;
34896;SDS011;43407;51.828;-2.298;2023-12-29T01:07:39;14.85;;;3.40;;
34896;SDS011;43407;51.828;-2.298;2023-12-29T01:10:05;12.57;;;2.60;;
34896;SDS011;43407;51.828;-2.298;2023-12-29T01:12:30;4.18;;;1.30;;
34896;SDS011;43407;51.828;-2.298;2023-12-29T01:14:56;4.22;;;1.00;;
34896;SDS011;43407;51.828;-2.298;2023-12-29T01:17:21;4.30;;;1.40;;
34896;SDS011;43407;51.828;-2.298;2023-12-29T01:19:47;5.72;;;1.30;;
34896;SDS011;43407;51.828;-2.298;2023-12-29T01:22:12;5.68;;;1.40;;
34896;SDS011;43407;51.828;-2.298;2023-12-29T01:24:37;3.75;;;0.88;;
34896;SDS011;43407;51.828;-2.298;2023-12-29T01:27:03;3.80;;;1.20;;
34896;SDS011;43407;51.828;-2.298;2023-12-29T01:29:30;2.25;;;0.95;;
34896;SDS011;43407;51.828;-2.298;2023-12-29T01:31:55;6.47;;;1.60;;
34896;SDS011;43407;51.828;-2.298;2023-12-29T01:34:20;7.60;;;2.10;;
34896;SDS011;43407;51.828;-2.298;2023-12-29T01:36:46;4.80;;;1.48;;
34896;SDS011;43407;51.828;-2.298;2023-12-29T01:39:11;6.68;;;1.65;;
34896;SDS011;43407;51.828;-2.298;2023-12-29T01:41:36;9.50;;;1.92;;
34896;SDS011;43407;51.828;-2.298;2023-12-29T01:46:31;14.93;;;2.60;;
34896;SDS011;43407;51.828;-2.298;2023-12-29T01:48:58;16.83;;;2.90;;
34896;SDS011;43407;51.828;-2.298;2023-12-29T01:51:24;9.90;;;2.78;;
34896;SDS011;43407;51.828;-2.298;2023-12-29T01:53:50;7.85;;;2.20;;
34896;SDS011;43407;51.828;-2.298;2023-12-29T01:56:16;12.63;;;2.78;;
34896;SDS011;43407;51.828;-2.298;2023-12-29T01:58:42;11.77;;;2.60;;
34896;SDS011;43407;51.828;-2.298;2023-12-29T02:01:08;14.43;;;2.60;;
34896;SDS011;43407;51.828;-2.298;2023-12-29T02:03:34;13.02;;;2.67;;
34896;SDS011;43407;51.828;-2.298;2023-12-29T02:05:59;13.73;;;2.70;;
34896;SDS011;43407;51.828;-2.298;2023-12-29T02:08:25;15.25;;;2.63;;
34896;SDS011;43407;51.828;-2.298;2023-12-29T02:10:50;10.85;;;2.60;;
34896;SDS011;43407;51.828;-2.298;2023-12-29T02:13:16;11.27;;;2.47;;
34896;SDS011;43407;51.828;-2.298;2023-12-29T02:15:41;13.75;;;2.67;;
34896;SDS011;43407;51.828;-2.298;2023-12-29T02:18:07;11.43;;;2.47;;
34896;SDS011;43407;51.828;-2.298;2023-12-29T02:20:35;10.82;;;2.50;;
34896;SDS011;43407;51.828;-2.298;2023-12-29T02:23:00;13.30;;;2.63;;
34896;SDS011;43407;51.828;-2.298;2023-12-29T02:25:26;7.72;;;2.63;;
34896;SDS011;43407;51.828;-2.298;2023-12-29T02:27:52;13.70;;;2.47;;
34896;SDS011;43407;51.828;-2.298;2023-12-29T02:32:45;14.70;;;2.55;;
34896;SDS011;43407;51.828;-2.298;2023-12-29T02:35:19;11.23;;;2.15;;
34896;SDS011;43407;51.828;-2.298;2023-12-29T02:37:45;15.38;;;2.75;;
34896;SDS011;43407;51.828;-2.298;2023-12-29T02:40:12;14.23;;;2.90;;
34896;SDS011;43407;51.828;-2.298;2023-12-29T02:42:39;16.42;;;2.90;;
34896;SDS011;43407;51.828;-2.298;2023-12-29T02:45:09;12.02;;;2.75;;
34896;SDS011;43407;51.828;-2.298;2023-12-29T02:47:35;14.05;;;3.35;;
34896;SDS011;43407;51.828;-2.298;2023-12-29T02:50:00;10.82;;;3.25;;
34896;SDS011;43407;51.828;-2.298;2023-12-29T02:52:26;7.97;;;2.50;;
34896;SDS011;43407;51.828;-2.298;2023-12-29T02:54:51;14.05;;;2.80;;
34896;SDS011;43407;51.828;-2.298;2023-12-29T02:57:16;18.27;;;3.03;;
34896;SDS011;43407;51.828;-2.298;2023-12-29T02:59:42;17.15;;;3.25;;
34896;SDS011;43407;51.828;-2.298;2023-12-29T03:02:07;14.15;;;2.90;;
34896;SDS011;43407;51.828;-2.298;2023-12-29T03:04:32;14.63;;;3.35;;
34896;SDS011;43407;51.828;-2.298;2023-12-29T03:06:58;13.73;;;2.45;;
34896;SDS011;43407;51.828;-2.298;2023-12-29T03:09:23;14.73;;;3.23;;
34896;SDS011;43407;51.828;-2.298;2023-12-29T03:11:48;13.55;;;2.75;;
34896;SDS011;43407;51.828;-2.298;2023-12-29T03:14:14;16.58;;;3.08;;
34896;SDS011;43407;51.828;-2.298;2023-12-29T03:16:40;10.98;;;2.58;;
34896;SDS011;43407;51.828;-2.298;2023-12-29T03:19:05;10.13;;;2.35;;
34896;SDS011;43407;51.828;-2.298;2023-12-29T03:21:30;12.80;;;2.45;;
34896;SDS011;43407;51.828;-2.298;2023-12-29T03:23:56;9.73;;;1.90;;
34896;SDS011;43407;51.828;-2.298;2023-12-29T03:26:21;11.85;;;3.03;;
34896;SDS011;43407;51.828;-2.298;2023-12-29T03:28:46;18.58;;;2.90;;
34896;SDS011;43407;51.828;-2.298;2023-12-29T03:31:12;15.50;;;2.65;;
34896;SDS011;43407;51.828;-2.298;2023-12-29T03:33:37;13.20;;;2.55;;
34896;SDS011;43407;51.828;-2.298;2023-12-29T03:36:03;12.35;;;2.38;;
34896;SDS011;43407;51.828;-2.298;2023-12-29T03:38:28;15.10;;;3.58;;
34896;SDS011;43407;51.828;-2.298;2023-12-29T03:40:53;14.30;;;2.78;;
34896;SDS011;43407;51.828;-2.298;2023-12-29T03:43:18;13.75;;;2.78;;
34896;SDS011;43407;51.828;-2.298;2023-12-29T03:45:44;10.57;;;2.50;;
34896;SDS011;43407;51.828;-2.298;2023-12-29T03:48:09;6.85;;;2.10;;
34896;SDS011;43407;51.828;-2.298;2023-12-29T03:50:35;17.90;;;2.92;;
34896;SDS011;43407;51.828;-2.298;2023-12-29T03:53:00;6.97;;;1.80;;
34896;SDS011;43407;51.828;-2.298;2023-12-29T03:55:26;8.93;;;2.20;;
34896;SDS011;43407;51.828;-2.298;2023-12-29T03:57:51;15.77;;;2.50;;
34896;SDS011;43407;51.828;-2.298;2023-12-29T04:00:16;10.82;;;2.42;;
34896;SDS011;43407;51.828;-2.298;2023-12-29T04:02:42;16.90;;;2.78;;
34896;SDS011;43407;51.828;-2.298;2023-12-29T04:05:08;9.90;;;2.45;;
34896;SDS011;43407;51.828;-2.298;2023-12-29T04:07:34;8.63;;;2.10;;
34896;SDS011;43407;51.828;-2.298;2023-12-29T04:09:59;12.18;;;2.50;;
34896;SDS011;43407;51.828;-2.298;2023-12-29T04:12:24;9.90;;;2.22;;
34896;SDS011;43407;51.828;-2.298;2023-12-29T04:14:50;6.85;;;1.90;;
34896;SDS011;43407;51.828;-2.298;2023-12-29T04:17:15;7.03;;;1.83;;
34896;SDS011;43407;51.828;-2.298;2023-12-29T04:19:41;7.20;;;1.75;;
34896;SDS011;43407;51.828;-2.298;2023-12-29T04:22:07;5.85;;;1.75;;
34896;SDS011;43407;51.828;-2.298;2023-12-29T04:24:33;7.40;;;2.33;;
34896;SDS011;43407;51.828;-2.298;2023-12-29T04:26:58;5.72;;;1.60;;
34896;SDS011;43407;51.828;-2.298;2023-12-29T04:29:23;4.75;;;1.58;;
34896;SDS011;43407;51.828;-2.298;2023-12-29T04:31:49;8.30;;;1.77;;
34896;SDS011;43407;51.828;-2.298;2023-12-29T04:34:14;5.05;;;1.70;;
34896;SDS011;43407;51.828;-2.298;2023-12-29T04:36:40;8.98;;;1.80;;
34896;SDS011;43407;51.828;-2.298;2023-12-29T04:39:05;8.68;;;1.35;;
34896;SDS011;43407;51.828;-2.298;2023-12-29T04:41:34;11.30;;;2.10;;
34896;SDS011;43407;51.828;-2.298;2023-12-29T04:43:59;5.97;;;1.55;;
34896;SDS011;43407;51.828;-2.298;2023-12-29T04:46:24;6.15;;;1.75;;
34896;SDS011;43407;51.828;-2.298;2023-12-29T04:48:50;7.65;;;1.80;;
34896;SDS011;43407;51.828;-2.298;2023-12-29T04:51:15;7.40;;;1.40;;
34896;SDS011;43407;51.828;-2.298;2023-12-29T04:53:40;8.95;;;2.08;;
34896;SDS011;43407;51.828;-2.298;2023-12-29T04:56:06;5.68;;;1.38;;
34896;SDS011;43407;51.828;-2.298;2023-12-29T04:58:31;5.47;;;1.15;;
34896;SDS011;43407;51.828;-2.298;2023-12-29T05:00:56;6.60;;;1.52;;
34896;SDS011;43407;51.828;-2.298;2023-12-29T05:03:22;5.32;;;1.58;;
34896;SDS011;43407;51.828;-2.298;2023-12-29T05:05:47;5.55;;;1.63;;
34896;SDS011;43407;51.828;-2.298;2023-12-29T05:08:12;4.78;;;1.02;;
34896;SDS011;43407;51.828;-2.298;2023-12-29T05:10:37;8.45;;;1.38;;
34896;SDS011;43407;51.828;-2.298;2023-12-29T05:13:03;6.10;;;1.30;;
34896;SDS011;43407;51.828;-2.298;2023-12-29T05:15:28;7.00;;;1.58;;
34896;SDS011;43407;51.828;-2.298;2023-12-29T05:17:54;6.18;;;1.50;;
34896;SDS011;43407;51.828;-2.298;2023-12-29T05:20:19;9.00;;;1.60;;
34896;SDS011;43407;51.828;-2.298;2023-12-29T05:22:44;5.72;;;1.67;;
34896;SDS011;43407;51.828;-2.298;2023-12-29T05:25:10;4.85;;;1.20;;
34896;SDS011;43407;51.828;-2.298;2023-12-29T05:27:35;9.05;;;1.63;;
34896;SDS011;43407;51.828;-2.298;2023-12-29T05:30:01;8.43;;;1.73;;
34896;SDS011;43407;51.828;-2.298;2023-12-29T05:32:26;4.65;;;0.90;;
34896;SDS011;43407;51.828;-2.298;2023-12-29T05:34:51;8.77;;;1.30;;
34896;SDS011;43407;51.828;-2.298;2023-12-29T05:37:17;4.63;;;1.50;;
34896;SDS011;43407;51.828;-2.298;2023-12-29T05:39:42;4.68;;;1.35;;
34896;SDS011;43407;51.828;-2.298;2023-12-29T05:42:08;6.03;;;1.02;;
34896;SDS011;43407;51.828;-2.298;2023-12-29T05:44:35;4.05;;;1.13;;
34896;SDS011;43407;51.828;-2.298;2023-12-29T05:47:00;5.47;;;1.30;;
34896;SDS011;43407;51.828;-2.298;2023-12-29T05:49:26;5.45;;;1.63;;
34896;SDS011;43407;51.828;-2.298;2023-12-29T05:51:51;7.63;;;1.50;;
34896;SDS011;43407;51.828;-2.298;2023-12-29T05:54:17;6.10;;;1.20;;
34896;SDS011;43407;51.828;-2.298;2023-12-29T05:56:43;6.50;;;1.40;;
34896;SDS011;43407;51.828;-2.298;2023-12-29T05:59:08;4.68;;;1.50;;
34896;SDS011;43407;51.828;-2.298;2023-12-29T06:01:33;5.88;;;1.20;;
34896;SDS011;43407;51.828;-2.298;2023-12-29T06:03:59;6.50;;;1.65;;
34896;SDS011;43407;51.828;-2.298;2023-12-29T06:06:24;9.90;;;1.83;;
34896;SDS011;43407;51.828;-2.298;2023-12-29T06:08:49;10.23;;;1.60;;
34896;SDS011;43407;51.828;-2.298;2023-12-29T06:11:15;6.25;;;1.55;;
34896;SDS011;43407;51.828;-2.298;2023-12-29T06:13:41;4.88;;;1.58;;
34896;SDS011;43407;51.828;-2.298;2023-12-29T06:16:06;7.40;;;1.65;;
34896;SDS011;43407;51.828;-2.298;2023-12-29T06:18:31;9.27;;;1.50;;
34896;SDS011;43407;51.828;-2.298;2023-12-29T06:20:57;8.70;;;1.85;;
34896;SDS011;43407;51.828;-2.298;2023-12-29T06:23:22;8.48;;;2.08;;
34896;SDS011;43407;51.828;-2.298;2023-12-29T06:25:48;11.98;;;1.88;;
34896;SDS011;43407;51.828;-2.298;2023-12-29T06:28:13;8.30;;;1.98;;
34896;SDS011;43407;51.828;-2.298;2023-12-29T06:30:39;5.97;;;1.70;;
34896;SDS011;43407;51.828;-2.298;2023-12-29T06:33:04;10.43;;;1.73;;
34896;SDS011;43407;51.828;-2.298;2023-12-29T06:35:30;8.27;;;1.55;;
34896;SDS011;43407;51.828;-2.298;2023-12-29T06:37:55;11.15;;;2.00;;
34896;SDS011;43407;51.828;-2.298;2023-12-29T06:40:21;8.02;;;1.85;;
34896;SDS011;43407;51.828;-2.298;2023-12-29T06:42:46;5.90;;;1.98;;
34896;SDS011;43407;51.828;-2.298;2023-12-29T06:45:11;5.65;;;1.50;;
34896;SDS011;43407;51.828;-2.298;2023-12-29T06:47:37;7.85;;;1.70;;
34896;SDS011;43407;51.828;-2.298;2023-12-29T06:50:02;7.78;;;1.55;;
34896;SDS011;43407;51.828;-2.298;2023-12-29T06:52:28;7.45;;;1.52;;
34896;SDS011;43407;51.828;-2.298;2023-12-29T06:54:58;7.50;;;1.60;;
34896;SDS011;43407;51.828;-2.298;2023-12-29T06:57:24;6.03;;;1.73;;
34896;SDS011;43407;51.828;-2.298;2023-12-29T06:59:49;4.60;;;1.48;;
34896;SDS011;43407;51.828;-2.298;2023-12-29T07:02:15;5.53;;;1.52;;
34896;SDS011;43407;51.828;-2.298;2023-12-29T07:04:41;5.63;;;1.67;;
34896;SDS011;43407;51.828;-2.298;2023-12-29T07:07:06;9.02;;;1.75;;
34896;SDS011;43407;51.828;-2.298;2023-12-29T07:09:32;5.38;;;1.50;;
34896;SDS011;43407;51.828;-2.298;2023-12-29T07:11:57;10.98;;;1.75;;
34896;SDS011;43407;51.828;-2.298;2023-12-29T07:14:22;8.70;;;1.52;;
34896;SDS011;43407;51.828;-2.298;2023-12-29T07:16:48;7.32;;;1.73;;
34896;SDS011;43407;51.828;-2.298;2023-12-29T07:19:13;6.72;;;1.55;;
34896;SDS011;43407;51.828;-2.298;2023-12-29T07:21:38;5.90;;;1.80;;
34896;SDS011;43407;51.828;-2.298;2023-12-29T07:24:04;8.25;;;1.85;;
34896;SDS011;43407;51.828;-2.298;2023-12-29T07:26:29;6.35;;;2.55;;
34896;SDS011;43407;51.828;-2.298;2023-12-29T07:28:57;7.68;;;2.00;;
34896;SDS011;43407;51.828;-2.298;2023-12-29T07:31:22;6.78;;;1.67;;
34896;SDS011;43407;51.828;-2.298;2023-12-29T07:33:48;9.07;;;2.10;;
34896;SDS011;43407;51.828;-2.298;2023-12-29T07:36:13;8.27;;;1.80;;
34896;SDS011;43407;51.828;-2.298;2023-12-29T07:38:39;8.35;;;1.80;;
34896;SDS011;43407;51.828;-2.298;2023-12-29T07:41:04;6.07;;;1.73;;
34896;SDS011;43407;51.828;-2.298;2023-12-29T07:43:31;11.32;;;2.47;;
34896;SDS011;43407;51.828;-2.298;2023-12-29T07:45:56;5.97;;;1.67;;
34896;SDS011;43407;51.828;-2.298;2023-12-29T07:48:21;7.20;;;2.53;;
34896;SDS011;43407;51.828;-2.298;2023-12-29T07:50:47;9.80;;;2.40;;
34896;SDS011;43407;51.828;-2.298;2023-12-29T07:53:13;12.57;;;2.70;;
34896;SDS011;43407;51.828;-2.298;2023-12-29T07:55:38;13.07;;;2.67;;
34896;SDS011;43407;51.828;-2.298;2023-12-29T07:58:05;12.73;;;2.58;;
34896;SDS011;43407;51.828;-2.298;2023-12-29T08:00:30;7.90;;;2.55;;
34896;SDS011;43407;51.828;-2.298;2023-12-29T08:02:55;13.80;;;3.03;;
34896;SDS011;43407;51.828;-2.298;2023-12-29T08:05:21;14.73;;;3.10;;
34896;SDS011;43407;51.828;-2.298;2023-12-29T08:07:46;9.50;;;2.35;;
34896;SDS011;43407;51.828;-2.298;2023-12-29T08:10:12;12.90;;;2.58;;
34896;SDS011;43407;51.828;-2.298;2023-12-29T08:12:37;17.13;;;3.25;;
34896;SDS011;43407;51.828;-2.298;2023-12-29T08:15:02;12.18;;;2.67;;
34896;SDS011;43407;51.828;-2.298;2023-12-29T08:17:28;11.13;;;2.53;;
34896;SDS011;43407;51.828;-2.298;2023-12-29T08:19:53;11.80;;;2.90;;
34896;SDS011;43407;51.828;-2.298;2023-12-29T08:22:19;16.40;;;2.80;;
34896;SDS011;43407;51.828;-2.298;2023-12-29T08:24:44;15.40;;;2.67;;
34896;SDS011;43407;51.828;-2.298;2023-12-29T08:27:11;10.05;;;2.42;;
34896;SDS011;43407;51.828;-2.298;2023-12-29T08:29:37;18.02;;;2.75;;
34896;SDS011;43407;51.828;-2.298;2023-12-29T08:32:02;9.70;;;2.30;;
34896;SDS011;43407;51.828;-2.298;2023-12-29T08:34:27;15.20;;;3.03;;
34896;SDS011;43407;51.828;-2.298;2023-12-29T08:36:53;19.40;;;2.83;;
34896;SDS011;43407;51.828;-2.298;2023-12-29T08:39:18;16.67;;;2.47;;
34896;SDS011;43407;51.828;-2.298;2023-12-29T08:41:44;14.07;;;3.22;;
34896;SDS011;43407;51.828;-2.298;2023-12-29T08:44:09;15.13;;;2.42;;
34896;SDS011;43407;51.828;-2.298;2023-12-29T08:46:35;13.48;;;2.45;;
34896;SDS011;43407;51.828;-2.298;2023-12-29T08:49:00;13.80;;;2.38;;
34896;SDS011;43407;51.828;-2.298;2023-12-29T08:51:26;9.73;;;2.38;;
34896;SDS011;43407;51.828;-2.298;2023-12-29T08:53:51;19.20;;;2.85;;
34896;SDS011;43407;51.828;-2.298;2023-12-29T08:56:16;14.98;;;2.47;;
34896;SDS011;43407;51.828;-2.298;2023-12-29T08:58:42;11.55;;;2.30;;
34896;SDS011;43407;51.828;-2.298;2023-12-29T09:01:07;12.57;;;2.50;;
34896;SDS011;43407;51.828;-2.298;2023-12-29T09:03:32;15.13;;;2.28;;
34896;SDS011;43407;51.828;-2.298;2023-12-29T09:05:58;7.30;;;2.00;;
34896;SDS011;43407;51.828;-2.298;2023-12-29T09:08:26;13.23;;;2.85;;
34896;SDS011;43407;51.828;-2.298;2023-12-29T09:10:52;9.20;;;2.03;;
34896;SDS011;43407;51.828;-2.298;2023-12-29T09:13:17;9.98;;;2.45;;
34896;SDS011;43407;51.828;-2.298;2023-12-29T09:15:47;9.32;;;2.25;;
34896;SDS011;43407;51.828;-2.298;2023-12-29T09:18:13;7.78;;;1.88;;
34896;SDS011;43407;51.828;-2.298;2023-12-29T09:20:38;5.80;;;1.73;;
34896;SDS011;43407;51.828;-2.298;2023-12-29T09:23:04;9.77;;;1.90;;
34896;SDS011;43407;51.828;-2.298;2023-12-29T09:25:30;8.43;;;1.90;;
34896;SDS011;43407;51.828;-2.298;2023-12-29T09:27:55;8.00;;;1.98;;
34896;SDS011;43407;51.828;-2.298;2023-12-29T09:30:21;8.40;;;2.08;;
34896;SDS011;43407;51.828;-2.298;2023-12-29T09:32:46;6.40;;;1.67;;
34896;SDS011;43407;51.828;-2.298;2023-12-29T09:35:12;10.95;;;2.10;;
34896;SDS011;43407;51.828;-2.298;2023-12-29T09:37:37;11.40;;;2.55;;
34896;SDS011;43407;51.828;-2.298;2023-12-29T09:40:02;8.02;;;1.92;;
34896;SDS011;43407;51.828;-2.298;2023-12-29T09:42:28;10.15;;;1.92;;
34896;SDS011;43407;51.828;-2.298;2023-12-29T09:44:54;10.70;;;1.88;;
34896;SDS011;43407;51.828;-2.298;2023-12-29T09:47:20;8.63;;;1.80;;
34896;SDS011;43407;51.828;-2.298;2023-12-29T09:49:48;6.28;;;1.65;;
34896;SDS011;43407;51.828;-2.298;2023-12-29T09:52:13;6.28;;;1.42;;
34896;SDS011;43407;51.828;-2.298;2023-12-29T09:54:40;7.82;;;1.55;;
34896;SDS011;43407;51.828;-2.298;2023-12-29T09:57:06;9.10;;;1.52;;
34896;SDS011;43407;51.828;-2.298;2023-12-29T09:59:35;4.82;;;1.30;;
34896;SDS011;43407;51.828;-2.298;2023-12-29T10:02:11;4.65;;;1.40;;
34896;SDS011;43407;51.828;-2.298;2023-12-29T10:07:03;6.00;;;1.20;;
34896;SDS011;43407;51.828;-2.298;2023-12-29T10:09:31;5.65;;;1.50;;
34896;SDS011;43407;51.828;-2.298;2023-12-29T10:11:57;5.70;;;1.13;;
34896;SDS011;43407;51.828;-2.298;2023-12-29T10:17:09;5.32;;;0.90;;
34896;SDS011;43407;51.828;-2.298;2023-12-29T10:19:37;2.40;;;1.02;;
34896;SDS011;43407;51.828;-2.298;2023-12-29T10:24:48;2.15;;;0.85;;
34896;SDS011;43407;51.828;-2.298;2023-12-29T10:27:15;6.85;;;1.15;;
34896;SDS011;43407;51.828;-2.298;2023-12-29T10:29:40;2.13;;;0.75;;
34896;SDS011;43407;51.828;-2.298;2023-12-29T10:32:06;5.78;;;1.23;;
34896;SDS011;43407;51.828;-2.298;2023-12-29T10:34:31;5.82;;;1.25;;
34896;SDS011;43407;51.828;-2.298;2023-12-29T10:36:57;3.35;;;0.95;;
34896;SDS011;43407;51.828;-2.298;2023-12-29T10:39:23;4.88;;;1.30;;
34896;SDS011;43407;51.828;-2.298;2023-12-29T10:42:06;3.55;;;1.17;;
34896;SDS011;43407;51.828;-2.298;2023-12-29T10:44:32;3.95;;;1.23;;
34896;SDS011;43407;51.828;-2.298;2023-12-29T10:46:58;5.20;;;1.58;;
34896;SDS011;43407;51.828;-2.298;2023-12-29T10:49:23;8.98;;;1.70;;
34896;SDS011;43407;51.828;-2.298;2023-12-29T10:51:49;5.53;;;1.20;;
34896;SDS011;43407;51.828;-2.298;2023-12-29T10:54:20;6.80;;;1.40;;
34896;SDS011;43407;51.828;-2.298;2023-12-29T10:57:01;5.82;;;1.42;;
34896;SDS011;43407;51.828;-2.298;2023-12-29T10:59:27;6.43;;;1.25;;
34896;SDS011;43407;51.828;-2.298;2023-12-29T11:01:53;3.17;;;1.20;;
34896;SDS011;43407;51.828;-2.298;2023-12-29T11:04:21;3.90;;;1.35;;
34896;SDS011;43407;51.828;-2.298;2023-12-29T11:06:46;3.28;;;1.10;;
34896;SDS011;43407;51.828;-2.298;2023-12-29T11:09:13;4.90;;;1.58;;
34896;SDS011;43407;51.828;-2.298;2023-12-29T11:11:38;3.10;;;1.10;;
34896;SDS011;43407;51.828;-2.298;2023-12-29T11:14:04;6.22;;;1.48;;
34896;SDS011;43407;51.828;-2.298;2023-12-29T11:16:30;3.33;;;1.30;;
34896;SDS011;43407;51.828;-2.298;2023-12-29T11:18:56;3.28;;;0.93;;
34896;SDS011;43407;51.828;-2.298;2023-12-29T11:21:22;3.45;;;1.35;;
34896;SDS011;43407;51.828;-2.298;2023-12-29T11:23:49;3.10;;;0.98;;
34896;SDS011;43407;51.828;-2.298;2023-12-29T11:26:15;2.47;;;1.00;;
34896;SDS011;43407;51.828;-2.298;2023-12-29T11:28:41;1.98;;;1.00;;
34896;SDS011;43407;51.828;-2.298;2023-12-29T11:31:07;2.00;;;0.88;;
34896;SDS011;43407;51.828;-2.298;2023-12-29T11:33:40;3.80;;;1.20;;
34896;SDS011;43407;51.828;-2.298;2023-12-29T11:36:13;2.78;;;0.90;;
34896;SDS011;43407;51.828;-2.298;2023-12-29T11:38:47;2.78;;;0.93;;
34896;SDS011;43407;51.828;-2.298;2023-12-29T11:41:19;3.20;;;1.05;;
34896;SDS011;43407;51.828;-2.298;2023-12-29T11:43:55;2.45;;;1.10;;
34896;SDS011;43407;51.828;-2.298;2023-12-29T11:46:33;5.15;;;1.10;;
34896;SDS011;43407;51.828;-2.298;2023-12-29T11:49:00;2.33;;;1.13;;
34896;SDS011;43407;51.828;-2.298;2023-12-29T11:51:42;3.10;;;0.98;;
34896;SDS011;43407;51.828;-2.298;2023-12-29T11:54:20;2.03;;;0.70;;
34896;SDS011;43407;51.828;-2.298;2023-12-29T11:56:46;5.00;;;1.17;;
34896;SDS011;43407;51.828;-2.298;2023-12-29T11:59:24;1.80;;;0.80;;
34896;SDS011;43407;51.828;-2.298;2023-12-29T12:01:53;4.22;;;1.00;;
34896;SDS011;43407;51.828;-2.298;2023-12-29T12:04:41;2.08;;;0.90;;
34896;SDS011;43407;51.828;-2.298;2023-12-29T12:07:08;3.03;;;1.35;;
34896;SDS011;43407;51.828;-2.298;2023-12-29T12:09:34;3.90;;;1.00;;
34896;SDS011;43407;51.828;-2.298;2023-12-29T12:12:04;2.58;;;0.80;;
34896;SDS011;43407;51.828;-2.298;2023-12-29T12:14:49;2.05;;;1.02;;
34896;SDS011;43407;51.828;-2.298;2023-12-29T12:17:29;4.88;;;1.38;;
34896;SDS011;43407;51.828;-2.298;2023-12-29T12:22:30;3.88;;;1.15;;
34896;SDS011;43407;51.828;-2.298;2023-12-29T12:24:57;2.40;;;0.80;;
34896;SDS011;43407;51.828;-2.298;2023-12-29T12:27:23;2.58;;;1.00;;
34896;SDS011;43407;51.828;-2.298;2023-12-29T12:29:58;3.75;;;0.95;;
34896;SDS011;43407;51.828;-2.298;2023-12-29T12:32:26;2.10;;;0.88;;
34896;SDS011;43407;51.828;-2.298;2023-12-29T12:34:52;2.90;;;0.80;;
34896;SDS011;43407;51.828;-2.298;2023-12-29T12:37:25;2.35;;;1.10;;
34896;SDS011;43407;51.828;-2.298;2023-12-29T12:39:51;3.15;;;1.00;;
34896;SDS011;43407;51.828;-2.298;2023-12-29T12:42:17;1.38;;;0.77;;
34896;SDS011;43407;51.828;-2.298;2023-12-29T12:47:23;2.45;;;0.70;;
34896;SDS011;43407;51.828;-2.298;2023-12-29T12:49:49;1.80;;;0.80;;
34896;SDS011;43407;51.828;-2.298;2023-12-29T12:52:15;1.48;;;0.90;;
34896;SDS011;43407;51.828;-2.298;2023-12-29T12:54:40;1.65;;;0.70;;
34896;SDS011;43407;51.828;-2.298;2023-12-29T12:57:05;1.98;;;0.90;;
34896;SDS011;43407;51.828;-2.298;2023-12-29T12:59:31;1.45;;;0.77;;
34896;SDS011;43407;51.828;-2.298;2023-12-29T13:01:57;0.85;;;0.60;;
34896;SDS011;43407;51.828;-2.298;2023-12-29T13:04:22;2.10;;;0.80;;
34896;SDS011;43407;51.828;-2.298;2023-12-29T13:06:48;1.05;;;0.60;;
34896;SDS011;43407;51.828;-2.298;2023-12-29T13:09:13;1.88;;;0.82;;
34896;SDS011;43407;51.828;-2.298;2023-12-29T13:11:42;2.03;;;0.77;;
34896;SDS011;43407;51.828;-2.298;2023-12-29T13:14:08;1.42;;;0.57;;
34896;SDS011;43407;51.828;-2.298;2023-12-29T13:16:34;1.40;;;0.80;;
34896;SDS011;43407;51.828;-2.298;2023-12-29T13:19:16;3.92;;;1.00;;
34896;SDS011;43407;51.828;-2.298;2023-12-29T13:21:45;0.73;;;0.60;;
34896;SDS011;43407;51.828;-2.298;2023-12-29T13:24:10;1.15;;;0.63;;
34896;SDS011;43407;51.828;-2.298;2023-12-29T13:26:35;1.98;;;0.60;;
34896;SDS011;43407;51.828;-2.298;2023-12-29T13:29:02;2.47;;;0.60;;
34896;SDS011;43407;51.828;-2.298;2023-12-29T13:31:27;2.40;;;0.60;;
34896;SDS011;43407;51.828;-2.298;2023-12-29T13:34:04;0.98;;;0.50;;
34896;SDS011;43407;51.828;-2.298;2023-12-29T13:36:36;1.40;;;0.65;;
34896;SDS011;43407;51.828;-2.298;2023-12-29T13:39:08;2.78;;;0.60;;
34896;SDS011;43407;51.828;-2.298;2023-12-29T13:41:34;0.65;;;0.57;;
34896;SDS011;43407;51.828;-2.298;2023-12-29T13:44:00;1.48;;;0.70;;
34896;SDS011;43407;51.828;-2.298;2023-12-29T13:46:25;1.55;;;0.60;;
34896;SDS011;43407;51.828;-2.298;2023-12-29T13:48:51;1.20;;;0.60;;
34896;SDS011;43407;51.828;-2.298;2023-12-29T13:51:16;3.05;;;1.00;;
34896;SDS011;43407;51.828;-2.298;2023-12-29T13:53:42;3.10;;;0.90;;
34896;SDS011;43407;51.828;-2.298;2023-12-29T13:56:07;1.30;;;0.80;;
34896;SDS011;43407;51.828;-2.298;2023-12-29T13:58:36;3.42;;;1.00;;
34896;SDS011;43407;51.828;-2.298;2023-12-29T14:01:01;1.70;;;1.00;;
34896;SDS011;43407;51.828;-2.298;2023-12-29T14:03:31;2.28;;;1.30;;
34896;SDS011;43407;51.828;-2.298;2023-12-29T14:06:00;1.90;;;1.10;;
34896;SDS011;43407;51.828;-2.298;2023-12-29T14:08:44;1.73;;;1.10;;
34896;SDS011;43407;51.828;-2.298;2023-12-29T14:11:10;1.65;;;1.00;;
34896;SDS011;43407;51.828;-2.298;2023-12-29T14:13:40;2.03;;;0.80;;
34896;SDS011;43407;51.828;-2.298;2023-12-29T14:16:06;2.25;;;0.98;;
34896;SDS011;43407;51.828;-2.298;2023-12-29T14:21:21;3.15;;;1.05;;
34896;SDS011;43407;51.828;-2.298;2023-12-29T14:26:33;5.63;;;1.38;;
34896;SDS011;43407;51.828;-2.298;2023-12-29T14:29:08;4.82;;;1.20;;
34896;SDS011;43407;51.828;-2.298;2023-12-29T14:31:38;3.42;;;1.10;;
34896;SDS011;43407;51.828;-2.298;2023-12-29T14:34:06;4.22;;;1.20;;
34896;SDS011;43407;51.828;-2.298;2023-12-29T14:36:32;2.33;;;0.93;;
34896;SDS011;43407;51.828;-2.298;2023-12-29T14:38:58;3.45;;;1.08;;
34896;SDS011;43407;51.828;-2.298;2023-12-29T14:41:23;1.40;;;0.93;;
34896;SDS011;43407;51.828;-2.298;2023-12-29T14:43:49;1.70;;;1.10;;
34896;SDS011;43407;51.828;-2.298;2023-12-29T14:46:15;2.35;;;1.00;;
34896;SDS011;43407;51.828;-2.298;2023-12-29T14:48:40;3.50;;;1.10;;
34896;SDS011;43407;51.828;-2.298;2023-12-29T14:51:06;4.88;;;1.02;;